Time;durP1;ratioP1;P1;durP2;ratioP2;P2;SDS_P1;SDS_P2;PMS_P1;PMS_P2;Temp;Humidity;BMP_temperature;BMP_pressure;BME280_temperature;BME280_humidity;BME280_pressure;Samples;Min_cycle;Max_cycle;Signal;HPM_P1;HPM_P2
2022/04/26 04:02:11;;;;;;;22.10;15.50;;;10.80;99.90;;;;;;5230812;23;20505;-80
2022/04/26 04:04:38;;;;;;;23.20;16.37;;;10.80;99.90;;;;;;4988052;28;20451;-81
2022/04/26 04:07:05;;;;;;;21.00;16.10;;;10.80;99.90;;;;;;4987712;28;20456;-78
2022/04/26 04:09:32;;;;;;;18.77;14.00;;;10.80;99.90;;;;;;4987667;28;20466;-78
2022/04/26 04:11:59;;;;;;;20.10;15.17;;;10.80;99.90;;;;;;4972803;28;20483;-80
2022/04/26 04:14:26;;;;;;;18.53;14.43;;;10.70;99.90;;;;;;4968528;28;20828;-78
2022/04/26 04:16:55;;;;;;;18.37;14.47;;;10.80;99.90;;;;;;4967605;28;20507;-78
2022/04/26 04:19:23;;;;;;;19.10;13.57;;;10.90;99.90;;;;;;4968826;28;20901;-81
2022/04/26 04:21:50;;;;;;;19.00;13.30;;;10.90;99.90;;;;;;4979133;28;20480;-80
2022/04/26 04:24:18;;;;;;;16.80;13.57;;;10.90;99.90;;;;;;4972576;28;20453;-79
2022/04/26 04:26:45;;;;;;;16.90;12.37;;;10.90;99.90;;;;;;4967786;28;20457;-78
2022/04/26 04:29:12;;;;;;;14.77;12.47;;;10.90;99.90;;;;;;4967801;28;21042;-78
2022/04/26 04:31:39;;;;;;;16.27;13.70;;;11.00;99.90;;;;;;4967672;28;20481;-78
2022/04/26 04:34:06;;;;;;;16.97;13.13;;;11.00;99.90;;;;;;4967911;28;20503;-78
2022/04/26 04:36:34;;;;;;;16.37;13.50;;;10.90;99.90;;;;;;4967016;28;21027;-79
2022/04/26 04:39:01;;;;;;;19.60;14.53;;;10.90;99.90;;;;;;4967852;28;20463;-78
2022/04/26 04:41:30;;;;;;;16.70;12.97;;;10.90;99.90;;;;;;4967482;28;20491;-78
2022/04/26 04:43:57;;;;;;;18.50;14.20;;;10.80;99.90;;;;;;4969752;28;20463;-78
2022/04/26 04:46:24;;;;;;;17.70;14.60;;;10.90;99.90;;;;;;4969424;28;20575;-77
2022/04/26 04:48:51;;;;;;;18.40;14.87;;;10.80;99.90;;;;;;4968812;28;20460;-78
2022/04/26 04:51:18;;;;;;;19.03;15.13;;;10.80;99.90;;;;;;4969853;28;20491;-78
2022/04/26 04:53:46;;;;;;;20.03;15.50;;;10.80;99.90;;;;;;4969388;28;21015;-78
2022/04/26 04:56:13;;;;;;;19.03;15.17;;;10.90;99.90;;;;;;4969565;28;21031;-79
2022/04/26 04:58:40;;;;;;;17.80;13.80;;;10.90;99.90;;;;;;4969705;28;20559;-77
2022/04/26 05:01:07;;;;;;;19.87;13.40;;;10.90;99.90;;;;;;4969621;28;20506;-78
2022/04/26 05:03:34;;;;;;;16.50;12.90;;;11.00;99.90;;;;;;4968670;28;20555;-78
2022/04/26 05:06:01;;;;;;;16.30;13.33;;;11.00;99.90;;;;;;4968191;28;20544;-78
2022/04/26 05:08:28;;;;;;;14.80;12.00;;;11.00;99.90;;;;;;4966763;28;20965;-78
2022/04/26 05:10:56;;;;;;;16.13;13.03;;;11.00;99.90;;;;;;4967525;28;20487;-78
2022/04/26 05:13:23;;;;;;;15.73;13.10;;;11.00;99.90;;;;;;4967791;28;20544;-78
2022/04/26 05:15:50;;;;;;;15.90;11.90;;;11.00;99.90;;;;;;4968207;28;20463;-78
2022/04/26 05:18:17;;;;;;;13.23;11.07;;;11.00;99.90;;;;;;4967429;28;20503;-78
2022/04/26 05:20:44;;;;;;;12.50;11.00;;;11.00;99.90;;;;;;4967466;28;20502;-78
2022/04/26 05:26:00;;;;;;;15.00;11.80;;;11.10;99.90;;;;;;4968387;28;20496;-79
2022/04/26 05:28:27;;;;;;;14.37;11.83;;;11.10;99.90;;;;;;4968144;28;20457;-79
2022/04/26 05:30:54;;;;;;;17.33;13.70;;;11.10;99.90;;;;;;4969560;28;20477;-79
2022/04/26 05:33:22;;;;;;;15.13;11.90;;;11.10;99.90;;;;;;4969452;28;20464;-79
2022/04/26 05:35:49;;;;;;;15.60;12.03;;;11.10;99.90;;;;;;4968759;28;20551;-79
2022/04/26 05:38:16;;;;;;;14.67;12.07;;;11.20;99.90;;;;;;4968452;28;20502;-79
2022/04/26 05:40:44;;;;;;;13.23;11.03;;;11.10;99.90;;;;;;4987956;28;20567;-79
2022/04/26 05:43:12;;;;;;;12.60;11.27;;;11.20;99.90;;;;;;4988017;28;20460;-79
2022/04/26 05:45:39;;;;;;;14.83;11.73;;;11.10;99.90;;;;;;4987240;28;20467;-80
2022/04/26 05:48:07;;;;;;;13.43;10.87;;;11.20;99.90;;;;;;4987872;28;20454;-78
2022/04/26 05:50:34;;;;;;;11.10;10.00;;;11.20;99.90;;;;;;4988243;28;20480;-79
2022/04/26 05:53:01;;;;;;;13.43;10.00;;;11.20;99.90;;;;;;4988468;28;20472;-79
2022/04/26 05:55:28;;;;;;;12.07;10.50;;;11.20;99.90;;;;;;4989022;28;20989;-78
2022/04/26 05:57:55;;;;;;;11.70;9.80;;;11.20;99.90;;;;;;4986053;28;20496;-79
2022/04/26 06:00:23;;;;;;;13.57;10.47;;;11.20;99.90;;;;;;4990055;28;20550;-79
2022/04/26 06:02:50;;;;;;;11.20;9.93;;;11.20;99.90;;;;;;4992239;28;20444;-78
2022/04/26 06:05:17;;;;;;;12.10;9.53;;;11.20;99.90;;;;;;4992375;28;20456;-79
2022/04/26 06:07:44;;;;;;;11.37;9.40;;;11.20;99.90;;;;;;4994138;28;20834;-79
2022/04/26 06:10:11;;;;;;;11.83;10.07;;;11.20;99.90;;;;;;4993671;28;20455;-78
2022/04/26 06:12:40;;;;;;;11.80;9.73;;;11.20;99.90;;;;;;4991882;28;20459;-78
2022/04/26 06:15:08;;;;;;;12.07;9.50;;;11.20;99.90;;;;;;4991484;28;20463;-78
2022/04/26 06:17:36;;;;;;;11.50;9.40;;;11.30;99.90;;;;;;4990721;28;20495;-78
2022/04/26 06:20:03;;;;;;;9.60;8.37;;;11.30;99.90;;;;;;4990873;28;20451;-78
2022/04/26 06:22:30;;;;;;;9.40;8.50;;;11.30;99.90;;;;;;4991409;28;20479;-78
2022/04/26 06:24:57;;;;;;;10.20;9.03;;;11.30;99.90;;;;;;4991449;28;20534;-78
2022/04/26 06:27:24;;;;;;;8.83;7.90;;;11.30;99.90;;;;;;4993108;28;20466;-78
2022/04/26 06:29:50;;;;;;;9.30;8.13;;;11.30;99.90;;;;;;4991611;28;20498;-78
2022/04/26 06:32:18;;;;;;;10.87;8.17;;;11.30;99.90;;;;;;4991204;28;20479;-78
2022/04/26 06:34:46;;;;;;;9.57;8.57;;;11.30;99.90;;;;;;4991406;28;20538;-78
2022/04/26 06:37:14;;;;;;;9.10;8.20;;;11.30;99.90;;;;;;4990348;28;20502;-77
2022/04/26 06:39:41;;;;;;;7.40;6.70;;;11.30;99.90;;;;;;4991783;28;20455;-77
2022/04/26 06:42:08;;;;;;;7.83;7.00;;;11.30;99.90;;;;;;4991307;28;20606;-78
2022/04/26 06:44:35;;;;;;;7.87;7.13;;;11.30;99.90;;;;;;4992131;28;20455;-78
2022/04/26 06:47:02;;;;;;;7.57;6.77;;;11.30;99.90;;;;;;4991029;28;20461;-77
2022/04/26 06:49:29;;;;;;;6.70;6.07;;;11.30;99.90;;;;;;4991684;28;20495;-78
2022/04/26 06:51:57;;;;;;;7.57;6.77;;;11.30;99.90;;;;;;4991824;28;20483;-77
2022/04/26 06:54:24;;;;;;;7.87;6.90;;;11.30;99.90;;;;;;4991320;28;20461;-77
2022/04/26 06:56:50;;;;;;;7.63;6.83;;;11.30;99.90;;;;;;4990700;28;20487;-77
2022/04/26 06:59:18;;;;;;;6.90;6.20;;;11.30;99.90;;;;;;4991189;28;20538;-78
2022/04/26 07:01:52;;;;;;;8.53;6.97;;;11.30;99.90;;;;;;4991076;28;20493;-77
2022/04/26 07:04:19;;;;;;;7.80;7.00;;;11.30;99.90;;;;;;4991150;28;20856;-77
2022/04/26 07:06:46;;;;;;;8.50;7.37;;;11.40;99.90;;;;;;4989806;28;20456;-77
2022/04/26 07:09:14;;;;;;;7.97;7.13;;;11.40;99.90;;;;;;4991276;28;20550;-78
2022/04/26 07:11:42;;;;;;;8.00;7.20;;;11.30;99.90;;;;;;4989543;28;20468;-78
2022/04/26 07:14:10;;;;;;;7.97;7.17;;;11.30;99.90;;;;;;4990152;28;20601;-76
2022/04/26 07:16:37;;;;;;;8.50;7.70;;;11.30;99.90;;;;;;4989215;28;20834;-77
2022/04/26 07:19:04;;;;;;;8.20;7.40;;;11.30;99.90;;;;;;4990114;28;21105;-79
2022/04/26 07:21:30;;;;;;;9.83;8.20;;;11.30;99.90;;;;;;4990433;28;20546;-77
2022/04/26 07:23:57;;;;;;;8.63;7.73;;;11.30;99.90;;;;;;4990250;28;20462;-77
2022/04/26 07:26:25;;;;;;;10.40;9.40;;;11.20;99.90;;;;;;4977215;28;20572;-77
2022/04/26 07:28:52;;;;;;;9.63;8.63;;;11.20;99.90;;;;;;4970163;28;20456;-77
2022/04/26 07:31:19;;;;;;;11.80;10.20;;;11.30;99.90;;;;;;4970288;28;20559;-77
2022/04/26 07:36:31;;;;;;;14.30;11.90;;;11.20;99.90;;;;;;4969249;28;20569;-77
2022/04/26 07:38:58;;;;;;;19.00;13.63;;;11.10;99.90;;;;;;4970167;28;20735;-77
2022/04/26 07:41:26;;;;;;;15.43;12.70;;;10.90;99.90;;;;;;4970422;28;20512;-77
2022/04/26 07:43:54;;;;;;;14.33;12.30;;;10.90;99.90;;;;;;4970181;28;20456;-77
2022/04/26 07:46:21;;;;;;;17.77;14.53;;;10.90;99.90;;;;;;4969508;28;20456;-77
2022/04/26 07:48:48;;;;;;;21.13;15.10;;;10.80;99.90;;;;;;4975943;28;20822;-76
2022/04/26 07:51:17;;;;;;;18.27;14.00;;;10.80;99.90;;;;;;4989115;28;20478;-77
2022/04/26 07:53:47;;;;;;;21.70;16.10;;;10.80;99.90;;;;;;4989605;28;20460;-77
2022/04/26 07:56:13;;;;;;;22.73;16.83;;;10.80;99.90;;;;;;4988741;28;20829;-77
2022/04/26 07:58:42;;;;;;;23.80;18.57;;;10.80;99.90;;;;;;4988967;28;20611;-76
2022/04/26 08:01:09;;;;;;;24.53;18.83;;;10.70;99.90;;;;;;4989157;28;20522;-77
2022/04/26 08:03:36;;;;;;;26.47;19.03;;;10.70;99.90;;;;;;4988795;28;20462;-77
2022/04/26 08:06:03;;;;;;;13.40;10.07;;;10.70;99.90;;;;;;4989309;28;20521;-78
2022/04/26 08:08:30;;;;;;;10.90;9.67;;;10.70;99.90;;;;;;4989000;28;20547;-78
2022/04/26 08:10:57;;;;;;;11.13;9.73;;;10.70;99.90;;;;;;4988758;28;20484;-77
2022/04/26 08:13:24;;;;;;;7.97;6.73;;;10.80;99.90;;;;;;4989258;28;20447;-77
2022/04/26 08:15:52;;;;;;;7.97;7.07;;;10.90;99.90;;;;;;4988982;28;20456;-77
2022/04/26 08:18:19;;;;;;;8.13;7.43;;;10.90;99.90;;;;;;4988481;28;20495;-77
2022/04/26 08:20:46;;;;;;;8.53;7.63;;;11.00;99.90;;;;;;4988118;28;20486;-76
2022/04/26 08:23:13;;;;;;;7.47;6.77;;;11.00;99.90;;;;;;4988156;28;20555;-76
2022/04/26 08:28:39;;;;;;;7.70;7.00;;;11.00;99.90;;;;;;4908988;29;20447;-77
2022/04/26 08:31:07;;;;;;;9.50;7.40;;;11.00;99.90;;;;;;4909105;29;20562;-76
2022/04/26 08:33:35;;;;;;;9.87;8.10;;;11.00;99.90;;;;;;4943159;28;20460;-76
2022/04/26 08:36:04;;;;;;;9.17;8.17;;;10.90;99.90;;;;;;4987834;28;20975;-77
2022/04/26 08:38:31;;;;;;;10.00;8.70;;;10.90;99.90;;;;;;4987358;28;20551;-76
2022/04/26 08:40:58;;;;;;;13.30;9.50;;;10.80;99.90;;;;;;4987999;28;20472;-76
2022/04/26 08:43:27;;;;;;;11.77;9.80;;;10.80;99.90;;;;;;4987446;28;20495;-76
2022/04/26 08:45:58;;;;;;;12.10;10.90;;;10.80;99.90;;;;;;4987839;28;20509;-76
2022/04/26 08:51:13;;;;;;;15.23;12.20;;;10.70;99.90;;;;;;4988068;28;20539;-77
2022/04/26 08:53:40;;;;;;;15.97;13.40;;;10.70;99.90;;;;;;4987998;28;20471;-76
2022/04/26 08:56:07;;;;;;;16.17;13.97;;;10.80;99.90;;;;;;4988198;28;20566;-77
2022/04/26 08:58:35;;;;;;;16.17;13.33;;;10.80;99.90;;;;;;4987367;28;20499;-76
2022/04/26 09:01:08;;;;;;;15.27;12.20;;;10.90;99.90;;;;;;4987822;28;20501;-76
2022/04/26 09:03:37;;;;;;;16.43;12.80;;;11.00;99.90;;;;;;4988015;28;20455;-76
2022/04/26 09:06:07;;;;;;;17.93;14.53;;;11.00;99.90;;;;;;4988154;28;20456;-76
2022/04/26 09:08:35;;;;;;;20.00;14.40;;;11.00;99.90;;;;;;4987608;28;20833;-76
2022/04/26 09:11:03;;;;;;;21.33;16.40;;;11.10;99.90;;;;;;4987874;28;20511;-76
2022/04/26 09:13:40;;;;;;;20.20;15.67;;;11.20;99.90;;;;;;4987575;28;20814;-75
2022/04/26 09:16:16;;;;;;;18.73;15.93;;;11.20;99.90;;;;;;4987811;28;20454;-76
2022/04/26 09:18:54;;;;;;;18.87;14.40;;;11.30;99.90;;;;;;4987767;28;20573;-76
2022/04/26 09:21:22;;;;;;;19.13;14.50;;;11.30;99.90;;;;;;4987583;28;20478;-76
2022/04/26 09:23:49;;;;;;;20.97;16.57;;;11.40;99.90;;;;;;4987427;28;20530;-75
2022/04/26 09:26:18;;;;;;;17.60;15.30;;;11.50;99.90;;;;;;4986728;28;20455;-76
2022/04/26 09:28:46;;;;;;;18.50;14.50;;;11.50;99.90;;;;;;4987371;28;20462;-76
2022/04/26 09:31:21;;;;;;;16.53;14.07;;;11.60;99.90;;;;;;4987589;28;20486;-77
2022/04/26 09:33:52;;;;;;;17.83;15.87;;;11.70;99.90;;;;;;4987606;28;20451;-76
2022/04/26 09:36:20;;;;;;;19.47;15.90;;;11.70;99.90;;;;;;4986583;28;20982;-76
2022/04/26 09:38:52;;;;;;;19.60;15.37;;;11.70;99.90;;;;;;4987150;28;20499;-76
2022/04/26 09:41:20;;;;;;;17.57;14.40;;;11.70;99.90;;;;;;4987318;28;20476;-76
2022/04/26 09:43:57;;;;;;;18.50;15.07;;;11.70;99.90;;;;;;4987349;28;21030;-77
2022/04/26 09:46:24;;;;;;;17.90;15.80;;;11.70;99.90;;;;;;4986404;28;20455;-76
2022/04/26 09:48:54;;;;;;;19.77;15.63;;;11.80;99.90;;;;;;4986729;28;20448;-77
2022/04/26 09:51:21;;;;;;;20.73;16.33;;;11.80;99.90;;;;;;4986539;28;20482;-76
2022/04/26 09:53:48;;;;;;;18.77;16.10;;;11.90;99.90;;;;;;4987240;28;20875;-76
2022/04/26 09:56:15;;;;;;;17.20;15.20;;;11.80;99.90;;;;;;4987000;28;20817;-76
2022/04/26 09:58:44;;;;;;;16.30;14.60;;;11.90;99.90;;;;;;4987079;28;20491;-76
2022/04/26 10:01:14;;;;;;;18.50;14.77;;;11.80;99.90;;;;;;4986719;28;21340;-77
2022/04/26 10:03:49;;;;;;;21.03;15.90;;;11.80;99.90;;;;;;4987027;28;20464;-76
2022/04/26 10:06:18;;;;;;;16.67;14.47;;;11.90;99.90;;;;;;4986680;28;20459;-77
2022/04/26 10:08:48;;;;;;;17.43;14.50;;;11.80;99.90;;;;;;4986506;28;21103;-77
2022/04/26 10:11:15;;;;;;;17.63;14.53;;;11.80;99.90;;;;;;4986730;28;20494;-77
2022/04/26 10:13:45;;;;;;;20.10;15.23;;;11.80;99.90;;;;;;4986841;28;20848;-77
2022/04/26 10:16:15;;;;;;;18.40;15.57;;;11.80;99.90;;;;;;4987173;28;20958;-77
2022/04/26 10:18:44;;;;;;;19.27;16.30;;;11.80;99.90;;;;;;4987081;28;21016;-77
2022/04/26 10:21:12;;;;;;;21.43;16.87;;;11.90;99.90;;;;;;4985199;28;20464;-70
2022/04/26 10:24:14;;;;;;;21.23;17.77;;;12.10;99.90;;;;;;4985574;28;20440;-70
2022/04/26 10:26:42;;;;;;;20.13;16.60;;;12.20;99.90;;;;;;4944358;29;20567;-77
2022/04/26 10:29:24;;;;;;;19.73;16.20;;;12.50;99.90;;;;;;4977441;28;20452;-77
2022/04/26 10:31:59;;;;;;;16.73;14.97;;;12.60;99.90;;;;;;4983641;28;21040;-77
2022/04/26 10:34:33;;;;;;;15.63;14.00;;;12.80;99.90;;;;;;4986118;28;20455;-77
2022/04/26 10:37:02;;;;;;;21.67;15.30;;;13.00;99.90;;;;;;4985733;28;20477;-77
2022/04/26 10:39:38;;;;;;;17.80;14.30;;;13.30;99.90;;;;;;4985898;28;20502;-76
2022/04/26 10:42:25;;;;;;;17.20;14.97;;;13.50;99.90;;;;;;4986387;28;20475;-76
2022/04/26 10:44:58;;;;;;;20.50;14.20;;;13.70;99.90;;;;;;4986666;28;20459;-76
2022/04/26 10:47:29;;;;;;;15.37;13.00;;;13.70;99.90;;;;;;4988739;28;20536;-77
2022/04/26 10:49:59;;;;;;;12.83;10.97;;;13.80;99.90;;;;;;4989899;28;20452;-77
2022/04/26 10:52:47;;;;;;;16.63;13.57;;;13.80;99.90;;;;;;4990326;28;20483;-77
2022/04/26 10:55:25;;;;;;;16.57;14.83;;;13.90;99.90;;;;;;4989651;28;20424;-76
2022/04/26 10:57:53;;;;;;;16.27;13.60;;;13.80;99.90;;;;;;4988707;28;20514;-77
2022/04/26 11:00:26;;;;;;;16.93;13.40;;;13.80;99.90;;;;;;4989496;28;20499;-76
2022/04/26 11:02:59;;;;;;;16.27;14.00;;;13.80;99.90;;;;;;4989508;28;20436;-77
2022/04/26 11:05:27;;;;;;;16.90;14.53;;;13.70;99.90;;;;;;4989479;28;20522;-72
2022/04/26 11:07:55;;;;;;;17.80;14.33;;;13.70;99.90;;;;;;4988832;28;20462;-72
2022/04/26 11:10:25;;;;;;;19.40;14.37;;;13.70;99.90;;;;;;4988720;28;20459;-71
2022/04/26 11:12:52;;;;;;;13.37;11.97;;;13.80;99.90;;;;;;4970405;28;20988;-71
2022/04/26 11:15:21;;;;;;;17.60;13.17;;;13.70;99.90;;;;;;4967994;28;20487;-77
2022/04/26 11:17:49;;;;;;;17.47;15.10;;;13.80;99.90;;;;;;4967955;28;20548;-76
2022/04/26 11:20:17;;;;;;;13.57;12.17;;;13.80;99.90;;;;;;4968330;28;20496;-77
2022/04/26 11:22:50;;;;;;;15.57;12.43;;;13.90;99.90;;;;;;4968811;28;20465;-77
2022/04/26 11:28:09;;;;;;;12.27;10.60;;;13.90;99.90;;;;;;4967889;28;20428;-77
2022/04/26 11:30:37;;;;;;;10.50;9.40;;;14.10;99.90;;;;;;4968010;28;20902;-78
2022/04/26 11:33:06;;;;;;;9.50;8.43;;;14.30;99.90;;;;;;4968813;28;20463;-75
2022/04/26 11:35:34;;;;;;;9.23;8.30;;;14.40;99.90;;;;;;4968614;28;20460;-75
2022/04/26 11:38:05;;;;;;;8.00;7.20;;;14.30;99.90;;;;;;4968176;28;20467;-75
2022/04/26 11:40:33;;;;;;;8.00;7.20;;;14.20;99.90;;;;;;4968464;28;20492;-75
2022/04/26 11:43:10;;;;;;;8.80;7.30;;;14.00;99.90;;;;;;4969315;28;20456;-75
2022/04/26 11:45:38;;;;;;;8.47;7.00;;;13.50;99.90;;;;;;4969845;28;20460;-75
2022/04/26 11:48:09;;;;;;;7.60;6.67;;;13.20;99.90;;;;;;4967656;28;20523;-70
2022/04/26 11:50:36;;;;;;;7.40;6.60;;;13.00;99.90;;;;;;4968807;28;20501;-68
2022/04/26 11:53:05;;;;;;;6.60;5.20;;;12.80;99.90;;;;;;4969010;28;20456;-76
2022/04/26 11:55:34;;;;;;;6.90;5.37;;;12.40;99.90;;;;;;4970615;28;20507;-78
2022/04/26 11:58:14;;;;;;;7.53;5.33;;;12.20;99.90;;;;;;4954272;28;20549;-75
2022/04/26 12:00:55;;;;;;;5.30;4.70;;;11.90;99.90;;;;;;4957708;28;21473;-78
2022/04/26 12:03:24;;;;;;;6.97;5.40;;;11.80;99.90;;;;;;4951346;28;20462;-78
2022/04/26 12:05:54;;;;;;;5.90;4.13;;;11.70;99.90;;;;;;4951100;28;20446;-75
2022/04/26 12:08:22;;;;;;;6.63;5.07;;;11.60;99.90;;;;;;4949865;28;20541;-76
2022/04/26 12:10:49;;;;;;;4.10;3.80;;;11.60;99.90;;;;;;4950434;28;20560;-77
2022/04/26 12:13:30;;;;;;;5.77;4.83;;;11.70;99.90;;;;;;4949584;28;20521;-77
2022/04/26 12:16:13;;;;;;;5.73;5.23;;;11.70;99.90;;;;;;4950810;28;20541;-77
2022/04/26 12:18:48;;;;;;;5.30;4.80;;;11.80;99.90;;;;;;4949672;28;20548;-77
2022/04/26 12:21:15;;;;;;;7.23;5.17;;;11.90;99.90;;;;;;4949726;28;20477;-77
2022/04/26 12:23:42;;;;;;;5.50;4.90;;;12.00;99.90;;;;;;4954515;28;20477;-76
2022/04/26 12:26:10;;;;;;;5.57;5.07;;;12.10;99.90;;;;;;4966172;28;20540;-77
2022/04/26 12:28:48;;;;;;;6.30;5.47;;;12.40;99.90;;;;;;4968274;28;20460;-77
2022/04/26 12:31:26;;;;;;;6.63;4.87;;;12.50;99.90;;;;;;4952251;28;20482;-77
2022/04/26 12:34:12;;;;;;;4.80;4.40;;;12.70;99.90;;;;;;4949530;28;20441;-76
2022/04/26 12:36:56;;;;;;;3.60;3.30;;;12.70;99.90;;;;;;4949241;28;20910;-76
2022/04/26 12:39:25;;;;;;;4.53;3.63;;;12.80;99.90;;;;;;4959012;28;20500;-76
2022/04/26 12:41:55;;;;;;;3.37;3.07;;;12.90;99.90;;;;;;4968700;28;20487;-71
2022/04/26 12:44:24;;;;;;;3.37;3.07;;;13.10;99.90;;;;;;4967363;28;20556;-71
2022/04/26 12:52:30;;;;;;;4.70;2.60;;;13.20;99.90;;;;;;4967312;28;20471;-72
2022/04/26 12:54:57;;;;;;;2.47;2.27;;;13.40;99.90;;;;;;4967990;28;20451;-71
2022/04/26 12:57:24;;;;;;;3.40;3.10;;;13.50;99.90;;;;;;4967163;28;20470;-71
2022/04/26 12:59:52;;;;;;;3.27;2.97;;;13.50;99.90;;;;;;4956739;28;20581;-71
2022/04/26 13:02:19;;;;;;;3.30;2.47;;;13.60;99.90;;;;;;4947957;28;20510;-71
2022/04/26 13:04:46;;;;;;;2.97;2.67;;;13.70;99.90;;;;;;4948547;28;20453;-73
2022/04/26 13:07:13;;;;;;;8.20;3.60;;;13.80;99.90;;;;;;4947811;28;20493;-73
2022/04/26 13:09:40;;;;;;;6.23;4.47;;;13.80;99.90;;;;;;4947666;28;21028;-72
2022/04/26 13:12:07;;;;;;;5.73;5.07;;;13.80;99.90;;;;;;4949014;28;20473;-72
2022/04/26 13:14:35;;;;;;;5.10;4.60;;;13.70;99.90;;;;;;4948140;28;20966;-71
2022/04/26 13:17:06;;;;;;;5.97;4.70;;;13.70;99.90;;;;;;4947792;28;20497;-74
2022/04/26 13:19:33;;;;;;;5.70;4.80;;;13.80;99.90;;;;;;4948490;28;20489;-71
2022/04/26 13:22:00;;;;;;;6.50;5.17;;;13.70;99.90;;;;;;4948181;28;20478;-71
2022/04/26 13:24:30;;;;;;;5.93;5.43;;;13.60;99.90;;;;;;4948845;28;20540;-77
2022/04/26 13:26:57;;;;;;;7.20;5.47;;;13.60;99.90;;;;;;4948579;28;20453;-77
2022/04/26 13:29:24;;;;;;;6.00;5.13;;;13.40;99.90;;;;;;4948531;28;20457;-76
2022/04/26 13:31:51;;;;;;;5.90;5.30;;;13.30;99.90;;;;;;4947943;28;20482;-77
2022/04/26 13:34:19;;;;;;;6.27;5.33;;;13.30;99.90;;;;;;4948333;28;20810;-77
2022/04/26 13:36:49;;;;;;;7.10;5.63;;;13.30;99.90;;;;;;4948601;28;20469;-76
2022/04/26 13:39:16;;;;;;;6.30;5.70;;;13.30;99.90;;;;;;4948359;28;20505;-76
2022/04/26 13:41:43;;;;;;;6.37;5.10;;;13.40;99.90;;;;;;4947554;28;20481;-77
2022/04/26 13:44:09;;;;;;;5.97;4.47;;;13.50;99.90;;;;;;4946973;28;20468;-76
2022/04/26 13:46:37;;;;;;;5.77;4.73;;;13.60;99.90;;;;;;4947699;28;20456;-76
2022/04/26 13:49:03;;;;;;;5.90;5.30;;;13.60;99.90;;;;;;4948600;28;20468;-76
2022/04/26 13:51:32;;;;;;;6.33;5.60;;;13.70;99.90;;;;;;4948340;28;20469;-76
2022/04/26 13:53:58;;;;;;;4.30;3.90;;;13.70;99.90;;;;;;4948626;28;20544;-77
2022/04/26 13:56:26;;;;;;;5.27;3.80;;;13.80;99.90;;;;;;4948444;28;20479;-77
2022/04/26 13:58:52;;;;;;;3.70;3.13;;;13.90;99.90;;;;;;4948836;28;20461;-76
2022/04/26 14:01:20;;;;;;;3.50;3.20;;;14.10;99.90;;;;;;4948531;28;20524;-77
2022/04/26 14:03:47;;;;;;;3.10;2.80;;;14.20;99.90;;;;;;4948642;28;20458;-77
2022/04/26 14:06:14;;;;;;;2.70;2.40;;;14.30;99.90;;;;;;4948660;28;20488;-76
2022/04/26 14:08:47;;;;;;;5.37;2.50;;;14.50;99.90;;;;;;4948660;28;21353;-76
2022/04/26 14:11:14;;;;;;;3.27;2.47;;;14.60;99.90;;;;;;4949072;28;20568;-77
2022/04/26 14:21:51;;;;;;;1.70;1.60;;;14.60;99.90;;;;;;4950985;28;20524;-76
2022/04/26 14:24:19;;;;;;;1.53;1.33;;;14.50;99.90;;;;;;4952710;28;20468;-77
2022/04/26 14:26:46;;;;;;;2.10;1.90;;;14.30;99.90;;;;;;4951377;28;20860;-77
2022/04/26 14:29:13;;;;;;;1.80;1.70;;;14.10;99.90;;;;;;4950797;28;20544;-77
2022/04/26 14:31:40;;;;;;;3.70;2.30;;;14.20;99.90;;;;;;4951048;28;20484;-77
2022/04/26 14:34:06;;;;;;;2.10;1.60;;;14.10;99.90;;;;;;4952616;28;20517;-76
2022/04/26 14:36:33;;;;;;;2.17;1.70;;;14.20;99.90;;;;;;4951722;28;20454;-76
2022/04/26 14:39:00;;;;;;;3.10;2.00;;;14.30;99.90;;;;;;4954152;28;20457;-79
2022/04/26 14:41:28;;;;;;;9.60;3.10;;;14.30;99.90;;;;;;4961701;28;20492;-77
2022/04/26 14:43:56;;;;;;;2.07;1.73;;;14.10;99.90;;;;;;4954529;28;20475;-77
2022/04/26 14:46:23;;;;;;;2.10;1.63;;;13.90;99.90;;;;;;4951768;28;20454;-77
2022/04/26 14:48:50;;;;;;;3.47;1.73;;;13.80;99.90;;;;;;4951419;28;20467;-76
2022/04/26 14:51:16;;;;;;;2.57;2.10;;;13.80;99.90;;;;;;4951896;28;20473;-77
2022/04/26 14:53:43;;;;;;;4.40;2.60;;;13.70;99.90;;;;;;4951167;28;20457;-77
2022/04/26 14:56:11;;;;;;;2.37;2.17;;;13.70;99.90;;;;;;4951331;28;20557;-77
2022/04/26 14:58:39;;;;;;;3.90;2.40;;;13.70;99.90;;;;;;4951218;28;20485;-77
2022/04/26 15:01:06;;;;;;;3.90;2.00;;;13.60;99.90;;;;;;4951359;28;20505;-76
2022/04/26 15:03:34;;;;;;;2.17;1.97;;;13.50;99.90;;;;;;4951711;28;20476;-77
2022/04/26 15:06:01;;;;;;;1.90;1.80;;;13.40;99.90;;;;;;4951175;29;20504;-76
2022/04/26 15:11:13;;;;;;;5.47;2.20;;;13.20;99.90;;;;;;4951502;29;21045;-78
2022/04/26 15:16:43;;;;;;;4.90;2.00;;;13.20;99.90;;;;;;4950761;29;20429;-77
2022/04/26 15:19:12;;;;;;;2.40;2.20;;;13.30;99.90;;;;;;4951266;28;20965;-77
2022/04/26 15:21:41;;;;;;;2.30;1.93;;;13.50;99.90;;;;;;4951454;28;20529;-77
2022/04/26 15:24:08;;;;;;;3.60;1.70;;;13.60;99.90;;;;;;4951236;28;20538;-77
2022/04/26 15:26:38;;;;;;;1.77;1.67;;;13.60;99.90;;;;;;4958173;28;20457;-78
2022/04/26 15:29:06;;;;;;;2.40;2.20;;;13.60;99.90;;;;;;4970245;28;20909;-77
2022/04/26 15:31:36;;;;;;;2.10;1.90;;;13.40;99.90;;;;;;4970383;28;20478;-77
2022/04/26 15:34:03;;;;;;;1.80;1.70;;;13.30;99.90;;;;;;4969245;28;20543;-78
2022/04/26 15:36:32;;;;;;;1.80;1.53;;;13.30;99.90;;;;;;4969140;28;21044;-77
2022/04/26 15:38:59;;;;;;;4.13;1.70;;;13.20;99.90;;;;;;4970474;28;20495;-78
2022/04/26 15:41:26;;;;;;;2.30;2.10;;;13.10;99.90;;;;;;4970023;28;20532;-77
2022/04/26 15:43:53;;;;;;;4.07;3.47;;;13.10;99.90;;;;;;4970241;28;20798;-77
2022/04/26 15:46:22;;;;;;;3.57;3.20;;;13.10;99.90;;;;;;4969715;28;20844;-77
2022/04/26 15:48:48;;;;;;;3.73;3.30;;;13.10;99.90;;;;;;4970132;28;20515;-77
2022/04/26 15:51:17;;;;;;;3.90;3.03;;;13.20;99.90;;;;;;4970122;28;20468;-77
2022/04/26 15:53:46;;;;;;;3.70;2.77;;;13.30;99.90;;;;;;4969686;28;20952;-76
2022/04/26 15:56:14;;;;;;;2.13;1.93;;;13.40;99.90;;;;;;4968982;28;21000;-77
2022/04/26 15:58:41;;;;;;;2.87;2.03;;;13.40;99.90;;;;;;4969667;28;20480;-77
2022/04/26 16:01:08;;;;;;;3.70;1.83;;;13.40;99.90;;;;;;4969402;28;20493;-76
2022/04/26 16:03:38;;;;;;;1.80;1.70;;;13.50;99.90;;;;;;4969678;28;20543;-76
2022/04/26 16:06:05;;;;;;;2.23;1.80;;;13.60;99.90;;;;;;4969903;28;20469;-78
2022/04/26 16:08:35;;;;;;;2.50;2.07;;;13.70;99.90;;;;;;4968796;28;20953;-78
2022/04/26 16:22:04;;;;;;;5.00;2.97;;;13.90;99.90;;;;;;4967938;28;20456;-78
2022/04/26 16:24:36;;;;;;;4.23;3.17;;;13.70;99.90;;;;;;4968995;28;20450;-78
2022/04/26 16:27:03;;;;;;;3.97;3.37;;;13.50;99.90;;;;;;4968988;28;20448;-78
2022/04/26 16:29:30;;;;;;;4.33;3.40;;;13.40;99.90;;;;;;4968552;28;20540;-78
2022/04/26 16:31:57;;;;;;;4.20;3.60;;;13.20;99.90;;;;;;4969087;28;20472;-78
2022/04/26 16:34:26;;;;;;;3.80;2.90;;;13.00;99.90;;;;;;4969927;28;20468;-78
2022/04/26 16:36:52;;;;;;;5.03;3.07;;;12.70;99.90;;;;;;4968569;28;20579;-78
2022/04/26 16:39:19;;;;;;;3.70;3.10;;;12.70;99.90;;;;;;4967657;28;20504;-77
2022/04/26 16:41:46;;;;;;;2.53;2.33;;;12.60;99.90;;;;;;4969063;28;20504;-77
2022/04/26 16:44:13;;;;;;;5.03;3.03;;;12.70;99.90;;;;;;4969645;28;20556;-77
2022/04/26 16:46:40;;;;;;;3.70;3.30;;;12.70;99.90;;;;;;4967193;28;20956;-77
2022/04/26 16:49:07;;;;;;;3.93;3.53;;;12.60;99.90;;;;;;4970342;28;20470;-77
2022/04/26 16:51:36;;;;;;;3.77;3.00;;;12.50;99.90;;;;;;4968710;28;20483;-77
2022/04/26 16:54:02;;;;;;;4.60;4.10;;;12.50;99.90;;;;;;4968927;28;20472;-77
2022/04/26 16:56:31;;;;;;;4.47;3.50;;;12.50;99.90;;;;;;4968087;28;21011;-77
2022/04/26 16:58:58;;;;;;;4.40;4.00;;;12.40;99.90;;;;;;4967871;28;20460;-77
2022/04/26 17:01:25;;;;;;;3.90;3.43;;;12.30;99.90;;;;;;4968223;28;21111;-77
2022/04/26 17:03:52;;;;;;;4.63;3.67;;;12.40;99.90;;;;;;4968477;28;21038;-76
2022/04/26 17:06:20;;;;;;;4.10;3.70;;;12.30;99.90;;;;;;4987222;28;20538;-76
2022/04/26 17:08:49;;;;;;;3.80;3.50;;;12.30;99.90;;;;;;4987677;28;20464;-77
2022/04/26 17:14:00;;;;;;;4.97;4.37;;;12.20;99.90;;;;;;4988371;28;21006;-76
2022/04/26 17:16:27;;;;;;;5.53;4.13;;;12.10;99.90;;;;;;4987265;28;20951;-77
2022/04/26 17:18:54;;;;;;;4.50;4.10;;;12.00;99.90;;;;;;4987922;28;20546;-77
2022/04/26 17:21:21;;;;;;;4.70;4.20;;;11.90;99.90;;;;;;4987712;28;20578;-77
2022/04/26 17:23:49;;;;;;;3.97;3.57;;;12.00;99.90;;;;;;4987653;28;21146;-78
2022/04/26 17:26:17;;;;;;;5.87;3.03;;;12.00;99.90;;;;;;4973733;28;21008;-78
2022/04/26 17:28:44;;;;;;;3.57;3.13;;;11.90;99.90;;;;;;4970057;28;20460;-79
2022/04/26 17:31:11;;;;;;;2.63;2.43;;;11.90;99.90;;;;;;4969718;28;20559;-77
2022/04/26 17:33:39;;;;;;;3.20;2.60;;;11.70;99.90;;;;;;4987910;28;20538;-78